Time;durP1;ratioP1;P1;durP2;ratioP2;P2;SDS_P1;SDS_P2;PMS_P1;PMS_P2;Temp;Humidity;BMP_temperature;BMP_pressure;BME280_temperature;BME280_humidity;BME280_pressure;Samples;Min_cycle;Max_cycle;Signal;HPM_P1;HPM_P2
2020/12/05 00:02:15;;;;;;;;;;;;;;;0.87;100.00;98976.34;5094179;28;19924;-70
2020/12/05 00:04:41;;;;;;;;;;;;;;;0.86;100.00;98973.78;5094272;28;20299;-70
2020/12/05 00:07:07;;;;;;;;;;;;;;;0.82;100.00;98973.97;5094000;28;19930;-70
2020/12/05 00:09:33;;;;;;;;;;;;;;;0.82;100.00;98975.81;5094126;28;20396;-70
2020/12/05 00:12:01;;;;;;;;;;;;;;;0.80;100.00;98973.25;5093994;28;20387;-70
2020/12/05 00:14:27;;;;;;;;;;;;;;;0.74;100.00;98965.66;5093966;28;19969;-70
2020/12/05 00:16:53;;;;;;;;;;;;;;;0.70;100.00;98957.97;5093774;28;19924;-70
2020/12/05 00:19:19;;;;;;;;;;;;;;;0.66;100.00;98944.78;5093591;28;20012;-70
2020/12/05 00:21:45;;;;;;;;;;;;;;;0.62;100.00;98937.13;5093710;28;20331;-70
2020/12/05 00:24:11;;;;;;;;;;;;;;;0.59;100.00;98934.63;5093933;28;19948;-70
2020/12/05 00:26:36;;;;;;;;;;;;;;;0.59;100.00;98950.66;5093493;28;19924;-70
2020/12/05 00:29:02;;;;;;;;;;;;;;;0.61;100.00;98956.75;5093789;28;19985;-70
2020/12/05 00:31:28;;;;;;;;;;;;;;;0.62;100.00;98956.66;5093678;28;20385;-70
2020/12/05 00:33:55;;;;;;;;;;;;;;;0.61;100.00;98965.63;5093727;28;19924;-70
2020/12/05 00:36:21;;;;;;;;;;;;;;;0.58;100.00;98970.34;5093285;28;20373;-70
2020/12/05 00:38:47;;;;;;;;;;;;;;;0.51;100.00;98980.56;5093670;28;20015;-69
2020/12/05 00:41:16;;;;;;;;;;;;;;;0.45;100.00;98981.81;5093387;28;19928;-70
2020/12/05 00:43:42;;;;;;;;;;;;;;;0.41;100.00;98976.81;5093539;28;19924;-70
2020/12/05 00:46:08;;;;;;;;;;;;;;;0.36;100.00;98976.25;5093204;28;20056;-70
2020/12/05 00:48:34;;;;;;;;;;;;;;;0.32;100.00;98965.78;5093375;28;20035;-70
2020/12/05 00:51:01;;;;;;;;;;;;;;;0.35;100.00;98951.38;5093279;28;19952;-70
2020/12/05 00:53:26;;;;;;;;;;;;;;;0.31;100.00;98952.56;5091580;28;19924;-70
2020/12/05 00:55:52;;;;;;;;;;;;;;;0.24;100.00;98953.91;5093115;28;19931;-70
2020/12/05 00:58:18;;;;;;;;;;;;;;;0.17;100.00;98948.13;5092980;28;19925;-70
2020/12/05 01:00:44;;;;;;;;;;;;;;;0.13;100.00;98949.28;5093187;28;19977;-70
2020/12/05 01:03:10;;;;;;;;;;;;;;;0.15;100.00;98961.56;5093125;28;19928;-70
2020/12/05 01:05:36;;;;;;;;;;;;;;;0.13;100.00;98960.84;5093078;28;20023;-70
2020/12/05 01:08:03;;;;;;;;;;;;;;;0.14;100.00;98959.84;5092744;28;20034;-70
2020/12/05 01:10:29;;;;;;;;;;;;;;;0.20;100.00;98957.72;5092839;28;20274;-70
2020/12/05 01:12:55;;;;;;;;;;;;;;;0.25;100.00;98955.63;5092281;28;19924;-70
2020/12/05 01:15:21;;;;;;;;;;;;;;;0.24;100.00;98967.25;5092874;28;19924;-70
2020/12/05 01:17:46;;;;;;;;;;;;;;;0.35;100.00;98971.88;5092551;28;19950;-70
2020/12/05 01:20:12;;;;;;;;;;;;;;;0.37;100.00;98968.13;5092788;28;19928;-70
2020/12/05 01:22:38;;;;;;;;;;;;;;;0.43;100.00;98973.06;5092737;28;19924;-70
2020/12/05 01:25:05;;;;;;;;;;;;;;;0.41;100.00;98985.66;5092776;28;19931;-70
2020/12/05 01:27:30;;;;;;;;;;;;;;;0.40;100.00;98975.09;5092408;28;19924;-70
2020/12/05 01:29:56;;;;;;;;;;;;;;;0.35;100.00;98974.53;5092233;28;20023;-70
2020/12/05 01:32:22;;;;;;;;;;;;;;;0.36;100.00;98974.47;5092666;28;19931;-70
2020/12/05 01:34:48;;;;;;;;;;;;;;;0.32;100.00;98965.78;5092591;28;20413;-70
2020/12/05 01:37:14;;;;;;;;;;;;;;;0.26;100.00;98960.84;5092147;28;19924;-71
2020/12/05 01:39:39;;;;;;;;;;;;;;;0.30;100.00;98980.19;5092307;28;20434;-70
2020/12/05 01:42:06;;;;;;;;;;;;;;;0.21;100.00;98970.97;5092339;28;19931;-70
2020/12/05 01:44:32;;;;;;;;;;;;;;;0.22;100.00;98964.69;5092366;28;19963;-70
2020/12/05 01:46:58;;;;;;;;;;;;;;;0.16;100.00;98971.28;5091810;28;19928;-70
2020/12/05 01:49:24;;;;;;;;;;;;;;;0.21;100.00;98968.31;5092347;28;19946;-70
2020/12/05 01:51:50;;;;;;;;;;;;;;;0.30;100.00;98975.69;5092190;28;19974;-70
2020/12/05 01:54:16;;;;;;;;;;;;;;;0.29;100.00;98973.13;5092092;28;20015;-70
2020/12/05 01:56:42;;;;;;;;;;;;;;;0.33;100.00;98967.50;5090636;28;19931;-70
2020/12/05 01:59:09;;;;;;;;;;;;;;;0.39;100.00;98960.91;5091995;28;19924;-70
2020/12/05 02:01:35;;;;;;;;;;;;;;;0.43;100.00;98959.72;5091858;28;19978;-70
2020/12/05 02:04:02;;;;;;;;;;;;;;;0.43;100.00;98966.91;5091698;28;19964;-70
2020/12/05 02:06:36;;;;;;;;;;;;;;;0.51;100.00;98964.56;5091651;28;19924;-70
2020/12/05 02:09:05;;;;;;;;;;;;;;;0.60;100.00;98971.94;5091919;28;19978;-70
2020/12/05 02:11:35;;;;;;;;;;;;;;;0.61;100.00;98976.31;5091757;28;19963;-70
2020/12/05 02:14:01;;;;;;;;;;;;;;;0.59;100.00;98969.34;5091883;28;20309;-70
2020/12/05 02:16:29;;;;;;;;;;;;;;;0.56;100.00;98961.56;5091760;28;19968;-70
2020/12/05 02:18:56;;;;;;;;;;;;;;;0.56;100.00;98966.91;5091679;28;20069;-70
2020/12/05 02:21:24;;;;;;;;;;;;;;;0.48;100.00;98962.94;5091722;28;20015;-70
2020/12/05 02:23:51;;;;;;;;;;;;;;;0.47;100.00;98973.72;5090431;28;20019;-70
2020/12/05 02:26:17;;;;;;;;;;;;;;;0.52;100.00;98965.41;5091471;28;20049;-70
2020/12/05 02:28:43;;;;;;;;;;;;;;;0.52;100.00;98963.56;5091592;28;19924;-70
2020/12/05 02:31:09;;;;;;;;;;;;;;;0.55;100.00;98975.88;5091596;28;19928;-69
2020/12/05 02:33:35;;;;;;;;;;;;;;;0.51;100.00;98969.91;5091494;28;20027;-70
2020/12/05 02:36:01;;;;;;;;;;;;;;;0.53;100.00;98965.28;5090179;28;19925;-70
2020/12/05 02:38:31;;;;;;;;;;;;;;;0.55;100.00;98962.50;5091449;28;19924;-70
2020/12/05 02:40:58;;;;;;;;;;;;;;;0.57;100.00;98969.47;5091470;28;19950;-70
2020/12/05 02:43:24;;;;;;;;;;;;;;;0.61;100.00;98978.97;5091239;28;19924;-69
2020/12/05 02:45:51;;;;;;;;;;;;;;;0.64;100.00;98975.25;5091538;28;19977;-70
2020/12/05 02:48:17;;;;;;;;;;;;;;;0.70;100.00;98974.84;5091116;28;19982;-70
2020/12/05 02:50:43;;;;;;;;;;;;;;;0.72;100.00;98970.25;5091315;28;19928;-70
2020/12/05 02:53:08;;;;;;;;;;;;;;;0.69;100.00;98962.44;5091067;28;19932;-70
2020/12/05 02:55:34;;;;;;;;;;;;;;;0.73;100.00;98957.75;5091319;28;19924;-70
2020/12/05 02:58:01;;;;;;;;;;;;;;;0.66;100.00;98949.28;5091061;28;19935;-70
2020/12/05 03:00:27;;;;;;;;;;;;;;;0.62;100.00;98947.81;5089968;28;20019;-70
2020/12/05 03:02:52;;;;;;;;;;;;;;;0.65;100.00;98955.59;5091164;28;20257;-70
2020/12/05 03:05:18;;;;;;;;;;;;;;;0.68;100.00;98960.72;5091197;28;20436;-70
2020/12/05 03:07:44;;;;;;;;;;;;;;;0.65;100.00;98963.59;5090959;28;19928;-70
2020/12/05 03:10:10;;;;;;;;;;;;;;;0.60;100.00;98968.41;5091151;28;19960;-70
2020/12/05 03:12:36;;;;;;;;;;;;;;;0.53;100.00;98972.47;5091175;28;20408;-70
2020/12/05 03:15:03;;;;;;;;;;;;;;;0.47;100.00;98966.56;5091178;28;19924;-70
2020/12/05 03:17:29;;;;;;;;;;;;;;;0.39;100.00;98962.69;5090728;28;19932;-70
2020/12/05 03:19:55;;;;;;;;;;;;;;;0.36;100.00;98966.44;5091009;28;19928;-70
2020/12/05 03:22:20;;;;;;;;;;;;;;;0.35;100.00;98963.84;5089892;28;19928;-70
2020/12/05 03:24:46;;;;;;;;;;;;;;;0.29;100.00;98970.47;5091170;28;19924;-70
2020/12/05 03:27:12;;;;;;;;;;;;;;;0.26;100.00;98970.69;5090817;28;19928;-70
2020/12/05 03:29:39;;;;;;;;;;;;;;;0.24;100.00;98972.59;5090865;28;19932;-70
2020/12/05 03:32:10;;;;;;;;;;;;;;;0.23;100.00;98965.53;5090955;28;20416;-70
2020/12/05 03:34:35;;;;;;;;;;;;;;;0.17;100.00;98961.47;5091097;28;20387;-70
2020/12/05 03:37:01;;;;;;;;;;;;;;;0.13;100.00;98960.84;5092749;28;19924;-70
2020/12/05 03:39:27;;;;;;;;;;;;;;;0.06;100.00;98961.34;5094671;28;19931;-70
2020/12/05 03:41:53;;;;;;;;;;;;;;;0.04;100.00;98964.09;5093408;28;19924;-70
2020/12/05 03:44:18;;;;;;;;;;;;;;;-0.01;100.00;98974.22;5076431;28;19925;-70
2020/12/05 03:46:44;;;;;;;;;;;;;;;-0.05;100.00;98962.88;5094385;28;19932;-70
2020/12/05 03:49:11;;;;;;;;;;;;;;;-0.10;100.00;98956.16;5094553;28;20335;-70
2020/12/05 03:51:37;;;;;;;;;;;;;;;-0.03;100.00;98952.97;5093254;28;19924;-70
2020/12/05 03:54:02;;;;;;;;;;;;;;;0.00;100.00;98949.25;5094589;28;19932;-70
2020/12/05 03:56:28;;;;;;;;;;;;;;;0.02;100.00;98957.16;5093863;28;19924;-70
2020/12/05 03:58:54;;;;;;;;;;;;;;;-0.04;100.00;98945.94;5094346;28;19985;-71
2020/12/05 04:01:22;;;;;;;;;;;;;;;-0.06;100.00;98949.66;5093044;28;19928;-70
2020/12/05 04:03:47;;;;;;;;;;;;;;;-0.01;100.00;98967.06;5094353;28;20019;-70
2020/12/05 04:06:14;;;;;;;;;;;;;;;0.06;100.00;98954.16;5093846;28;19971;-70
2020/12/05 04:08:40;;;;;;;;;;;;;;;0.05;100.00;98936.44;5094237;28;19925;-70
2020/12/05 04:11:06;;;;;;;;;;;;;;;0.15;100.00;98934.03;5094123;28;19974;-70
2020/12/05 04:13:32;;;;;;;;;;;;;;;0.20;100.00;98923.03;5093771;28;19924;-70
2020/12/05 04:15:58;;;;;;;;;;;;;;;0.28;100.00;98894.00;5093910;28;19978;-70
2020/12/05 04:18:24;;;;;;;;;;;;;;;0.30;100.00;98847.56;5093809;28;19924;-70
2020/12/05 04:20:50;;;;;;;;;;;;;;;0.23;100.00;98840.09;5093792;28;19974;-69
2020/12/05 04:23:16;;;;;;;;;;;;;;;0.11;100.00;98834.66;5094037;28;19931;-69
2020/12/05 04:25:42;;;;;;;;;;;;;;;0.02;100.00;98829.94;5093896;28;20015;-70
2020/12/05 04:28:08;;;;;;;;;;;;;;;-0.03;100.00;98832.06;5093546;28;19977;-70
2020/12/05 04:30:34;;;;;;;;;;;;;;;-0.08;100.00;98827.03;5093382;28;19967;-70
2020/12/05 04:33:00;;;;;;;;;;;;;;;-0.15;100.00;98832.88;5093706;28;19928;-70
2020/12/05 04:35:26;;;;;;;;;;;;;;;-0.15;100.00;98832.88;5093309;28;20390;-70
2020/12/05 04:37:51;;;;;;;;;;;;;;;-0.21;100.00;98813.66;5093463;28;19939;-70
2020/12/05 04:40:18;;;;;;;;;;;;;;;-0.20;100.00;98802.06;5093466;28;20423;-70
2020/12/05 04:42:44;;;;;;;;;;;;;;;-0.23;100.00;98826.28;5093508;28;19978;-70
2020/12/05 04:45:10;;;;;;;;;;;;;;;-0.31;100.00;98849.06;5093411;28;19967;-70
2020/12/05 04:47:37;;;;;;;;;;;;;;;-0.33;100.00;98857.16;5092214;28;19934;-70
2020/12/05 04:50:03;;;;;;;;;;;;;;;-0.29;100.00;98836.50;5092992;28;20022;-70
2020/12/05 04:52:32;;;;;;;;;;;;;;;-0.33;100.00;98825.16;5092853;28;19931;-70
2020/12/05 04:54:58;;;;;;;;;;;;;;;-0.39;100.00;98831.75;5093277;28;20018;-70
2020/12/05 04:57:25;;;;;;;;;;;;;;;-0.34;100.00;98831.44;5093063;28;19966;-70
2020/12/05 04:59:52;;;;;;;;;;;;;;;-0.17;100.00;98841.00;5093155;28;19924;-70
2020/12/05 05:02:18;;;;;;;;;;;;;;;-0.16;100.00;98853.38;5093015;28;20023;-70
2020/12/05 05:04:45;;;;;;;;;;;;;;;-0.09;100.00;98873.34;5093135;28;19930;-70
2020/12/05 05:07:10;;;;;;;;;;;;;;;-0.07;100.00;98889.25;5092381;28;19927;-70
2020/12/05 05:09:44;;;;;;;;;;;;;;;-0.10;100.00;98884.13;5092893;28;20401;-69
2020/12/05 05:12:10;;;;;;;;;;;;;;;-0.10;100.00;98890.28;5092949;28;19977;-70
2020/12/05 05:14:36;;;;;;;;;;;;;;;-0.15;100.00;98912.91;5091604;28;20385;-70
2020/12/05 05:17:05;;;;;;;;;;;;;;;-0.07;100.00;98919.44;5092662;28;19925;-70
2020/12/05 05:19:34;;;;;;;;;;;;;;;0.08;100.00;98908.69;5092556;28;20086;-70
2020/12/05 05:21:59;;;;;;;;;;;;;;;0.30;100.00;98892.13;5091467;28;20023;-70
2020/12/05 05:24:25;;;;;;;;;;;;;;;0.47;100.00;98877.63;5092560;28;20030;-70
2020/12/05 05:26:58;;;;;;;;;;;;;;;0.59;100.00;98865.19;5092276;28;20343;-70
2020/12/05 05:29:25;;;;;;;;;;;;;;;0.69;100.00;98881.47;5092582;28;20307;-69
2020/12/05 05:31:55;;;;;;;;;;;;;;;0.75;100.00;98911.28;5092616;28;20026;-70
2020/12/05 05:34:22;;;;;;;;;;;;;;;0.78;100.00;98921.72;5091296;28;19931;-70
2020/12/05 05:36:48;;;;;;;;;;;;;;;0.78;100.00;98902.19;5092257;28;20317;-70
2020/12/05 05:39:14;;;;;;;;;;;;;;;0.70;100.00;98897.38;5092438;28;19959;-70
2020/12/05 05:41:45;;;;;;;;;;;;;;;0.71;100.00;98912.44;5092283;28;20369;-70
2020/12/05 05:44:11;;;;;;;;;;;;;;;0.69;100.00;98932.22;5092338;28;20289;-70
2020/12/05 05:46:40;;;;;;;;;;;;;;;0.70;100.00;98942.78;5092134;28;19928;-70
2020/12/05 05:49:06;;;;;;;;;;;;;;;0.74;100.00;98975.50;5092259;28;20474;-70
2020/12/05 05:51:36;;;;;;;;;;;;;;;0.74;100.00;98992.34;5092173;28;19924;-70
2020/12/05 05:54:15;;;;;;;;;;;;;;;0.75;100.00;98983.38;5096516;28;19923;-70
2020/12/05 05:57:00;;;;;;;;;;;;;;;0.67;100.00;98964.38;5102909;28;19969;-70
2020/12/05 05:59:27;;;;;;;;;;;;;;;0.63;100.00;98949.50;5110760;28;19931;-70
2020/12/05 06:01:53;;;;;;;;;;;;;;;0.52;100.00;98947.56;5102088;28;19977;-70
2020/12/05 06:04:23;;;;;;;;;;;;;;;0.42;100.00;98943.81;5092057;28;20010;-71
2020/12/05 06:06:51;;;;;;;;;;;;;;;0.33;100.00;98945.28;5111106;28;19931;-70
2020/12/05 06:09:19;;;;;;;;;;;;;;;0.24;100.00;98962.78;5112162;28;20017;-69
2020/12/05 06:11:47;;;;;;;;;;;;;;;0.23;100.00;98976.19;5109749;28;19924;-70
2020/12/05 06:14:13;;;;;;;;;;;;;;;0.26;100.00;98982.19;5090598;28;20358;-69
2020/12/05 06:16:40;;;;;;;;;;;;;;;0.24;100.00;98967.25;5091256;28;19924;-69
2020/12/05 06:19:06;;;;;;;;;;;;;;;0.21;100.00;98978.13;5090335;28;19928;-70
2020/12/05 06:21:34;;;;;;;;;;;;;;;0.21;100.00;98994.16;5091102;28;20370;-70
2020/12/05 06:24:04;;;;;;;;;;;;;;;0.23;100.00;99011.78;5091574;28;20027;-70
2020/12/05 06:26:31;;;;;;;;;;;;;;;0.27;100.00;99031.13;5091572;28;20022;-69
2020/12/05 06:28:57;;;;;;;;;;;;;;;0.20;100.00;99029.78;5091698;28;19971;-69
2020/12/05 06:31:38;;;;;;;;;;;;;;;0.24;100.00;99047.31;5091492;28;20476;-69
2020/12/05 06:34:04;;;;;;;;;;;;;;;0.29;100.00;99061.22;5091447;28;20360;-70
2020/12/05 06:36:40;;;;;;;;;;;;;;;0.35;100.00;99058.16;5091304;28;19924;-70
2020/12/05 06:39:13;;;;;;;;;;;;;;;0.44;100.00;99070.03;5091487;28;19932;-69
2020/12/05 06:41:39;;;;;;;;;;;;;;;0.45;100.00;99053.91;5091157;28;19931;-69
2020/12/05 06:44:07;;;;;;;;;;;;;;;0.43;100.00;99047.84;5091400;28;20012;-70
2020/12/05 06:46:45;;;;;;;;;;;;;;;0.45;100.00;99040.56;5091051;28;19977;-69
2020/12/05 06:49:11;;;;;;;;;;;;;;;0.44;100.00;99041.53;5095265;28;20389;-69
2020/12/05 06:51:36;;;;;;;;;;;;;;;0.48;100.00;99045.72;5091225;28;20289;-69
2020/12/05 06:54:03;;;;;;;;;;;;;;;0.55;100.00;99050.63;5092001;28;19936;-69
2020/12/05 06:56:29;;;;;;;;;;;;;;;0.69;100.00;99042.56;5097792;28;20006;-69
2020/12/05 06:58:55;;;;;;;;;;;;;;;0.76;100.00;99043.88;5096975;28;19924;-69
2020/12/05 07:01:26;;;;;;;;;;;;;;;0.80;100.00;99044.50;5091189;28;20461;-69
2020/12/05 07:03:52;;;;;;;;;;;;;;;0.78;100.00;99031.25;5099865;28;20346;-69
2020/12/05 07:06:24;;;;;;;;;;;;;;;0.83;100.00;99026.47;5107838;28;19924;-69
2020/12/05 07:08:50;;;;;;;;;;;;;;;0.83;100.00;99031.81;5103507;28;20448;-69
2020/12/05 07:11:18;;;;;;;;;;;;;;;0.89;100.00;99037.69;5092284;28;19968;-69
2020/12/05 07:13:45;;;;;;;;;;;;;;;0.95;100.00;99042.59;5101130;28;20040;-69
2020/12/05 07:16:11;;;;;;;;;;;;;;;1.03;100.00;99034.94;5115520;28;19950;-69
2020/12/05 07:18:38;;;;;;;;;;;;;;;1.21;100.00;99034.63;5110268;28;19982;-69
2020/12/05 07:21:05;;;;;;;;;;;;;;;1.34;100.00;99035.47;5095198;28;20380;-68
2020/12/05 07:23:30;;;;;;;;;;;;;;;1.43;100.00;99034.84;5098816;28;19978;-69
2020/12/05 07:25:56;;;;;;;;;;;;;;;1.60;100.00;99027.44;5115391;28;19928;-68
2020/12/05 07:28:23;;;;;;;;;;;;;;;1.64;100.00;99018.22;5112281;27;20345;-68
2020/12/05 07:30:50;;;;;;;;;;;;;;;1.74;100.00;99021.97;5109702;28;19928;-70
2020/12/05 07:33:16;;;;;;;;;;;;;;;1.91;100.00;99026.09;5094822;28;20041;-69
2020/12/05 07:35:42;;;;;;;;;;;;;;;2.15;100.00;99023.44;5097963;28;20014;-69
2020/12/05 07:38:11;;;;;;;;;;;;;;;2.30;100.00;99025.97;5097958;28;19924;-69
2020/12/05 07:40:37;;;;;;;;;;;;;;;2.49;100.00;99045.03;5095986;28;20565;-69
2020/12/05 07:43:03;;;;;;;;;;;;;;;2.61;100.00;99045.97;5115147;28;19924;-69
2020/12/05 07:45:30;;;;;;;;;;;;;;;2.66;100.00;99037.59;5114403;28;20018;-69
2020/12/05 07:47:56;;;;;;;;;;;;;;;2.72;100.00;99030.91;5100517;27;19977;-69
2020/12/05 07:50:22;;;;;;;;;;;;;;;2.68;100.00;99025.75;5109513;28;19924;-68
2020/12/05 07:52:48;;;;;;;;;;;;;;;2.64;100.00;99043.03;5100392;28;20049;-68
2020/12/05 07:55:14;;;;;;;;;;;;;;;2.64;100.00;99055.59;5101580;28;19923;-68
2020/12/05 07:57:50;;;;;;;;;;;;;;;2.65;100.00;99063.50;5100951;28;19947;-69
2020/12/05 08:00:15;;;;;;;;;;;;;;;2.65;100.00;99066.19;5094286;28;20297;-68
2020/12/05 08:02:46;;;;;;;;;;;;;;;2.75;100.00;99070.84;5105321;28;20038;-69
2020/12/05 08:05:21;;;;;;;;;;;;;;;2.83;100.00;99082.72;5098875;28;20420;-68
2020/12/05 08:07:56;;;;;;;;;;;;;;;2.89;100.00;99088.59;5093285;28;20011;-68
2020/12/05 08:10:23;;;;;;;;;;;;;;;2.97;100.00;99094.22;5094185;28;20305;-69
2020/12/05 08:13:02;;;;;;;;;;;;;;;2.97;100.00;99105.78;5108017;28;19924;-68
2020/12/05 08:15:29;;;;;;;;;;;;;;;2.99;100.00;99116.41;5112194;28;19923;-68
2020/12/05 08:17:58;;;;;;;;;;;;;;;3.00;100.00;99120.78;5093739;28;20022;-68
2020/12/05 08:20:24;;;;;;;;;;;;;;;2.99;100.00;99122.63;5073507;28;20370;-69
2020/12/05 08:22:50;;;;;;;;;;;;;;;2.99;100.00;99125.31;5072475;28;19928;-69
2020/12/05 08:25:16;;;;;;;;;;;;;;;2.97;100.00;99126.41;5073491;28;20394;-69
2020/12/05 08:27:41;;;;;;;;;;;;;;;2.96;100.00;99143.44;5073261;28;20019;-69
2020/12/05 08:30:08;;;;;;;;;;;;;;;2.97;100.00;99153.22;5073370;28;19924;-69
2020/12/05 08:32:34;;;;;;;;;;;;;;;2.96;100.00;99163.06;5072026;28;19939;-70
2020/12/05 08:35:05;;;;;;;;;;;;;;;3.02;100.00;99156.41;5092385;28;19963;-68
2020/12/05 08:37:31;;;;;;;;;;;;;;;3.20;100.00;99159.50;5093335;28;20026;-68
2020/12/05 08:39:57;;;;;;;;;;;;;;;3.34;100.00;99151.28;5093569;28;19924;-68
2020/12/05 08:42:23;;;;;;;;;;;;;;;3.58;100.00;99146.81;5093361;28;20109;-68
2020/12/05 08:44:49;;;;;;;;;;;;;;;3.82;100.00;99154.78;5093374;28;20401;-69
2020/12/05 08:47:15;;;;;;;;;;;;;;;4.09;100.00;99157.16;5093362;28;20011;-69
2020/12/05 08:49:42;;;;;;;;;;;;;;;4.10;100.00;99160.66;5093386;28;20338;-68
2020/12/05 08:52:09;;;;;;;;;;;;;;;4.16;100.00;99171.78;5093390;28;20290;-68
2020/12/05 08:54:42;;;;;;;;;;;;;;;4.30;100.00;99181.44;5093336;28;20292;-67
2020/12/05 08:57:09;;;;;;;;;;;;;;;4.45;100.00;99184.72;5093243;28;20332;-68
2020/12/05 08:59:35;;;;;;;;;;;;;;;4.30;100.00;99189.50;5092832;28;20026;-68
2020/12/05 09:02:01;;;;;;;;;;;;;;;4.22;100.00;99183.03;5093199;28;19963;-68
2020/12/05 09:04:27;;;;;;;;;;;;;;;4.05;100.00;99181.66;5093306;28;19924;-68
2020/12/05 09:06:53;;;;;;;;;;;;;;;4.01;100.00;99173.00;5092770;28;19954;-68
2020/12/05 09:09:28;;;;;;;;;;;;;;;3.95;100.00;99182.38;5093223;28;20375;-68
2020/12/05 09:12:00;;;;;;;;;;;;;;;3.92;100.00;99166.53;5092951;28;20026;-68
2020/12/05 09:14:26;;;;;;;;;;;;;;;3.88;100.00;99146.25;5093030;28;20355;-69
2020/12/05 09:16:52;;;;;;;;;;;;;;;3.88;100.00;99183.00;5092385;28;19924;-68
2020/12/05 09:19:21;;;;;;;;;;;;;;;3.83;100.00;99205.66;5091523;28;19924;-68
2020/12/05 09:21:47;;;;;;;;;;;;;;;3.84;100.00;99222.66;5091625;28;20358;-69
2020/12/05 09:24:13;;;;;;;;;;;;;;;3.97;100.00;99254.78;5092914;28;19935;-68
2020/12/05 09:26:51;;;;;;;;;;;;;;;4.14;100.00;99277.63;5092650;28;19932;-68
2020/12/05 09:29:16;;;;;;;;;;;;;;;4.52;100.00;99266.56;5092802;28;19962;-69
2020/12/05 09:31:47;;;;;;;;;;;;;;;4.76;100.00;99270.97;5092680;28;20328;-69
2020/12/05 09:34:12;;;;;;;;;;;;;;;5.17;100.00;99284.72;5092321;28;20035;-69
2020/12/05 09:36:38;;;;;;;;;;;;;;;5.47;100.00;99277.81;5092041;28;20362;-69
2020/12/05 09:39:04;;;;;;;;;;;;;;;5.61;100.00;99252.41;5092524;28;19931;-69
2020/12/05 09:41:33;;;;;;;;;;;;;;;5.73;100.00;99255.91;5092441;28;19928;-70
2020/12/05 09:44:00;;;;;;;;;;;;;;;5.94;100.00;99261.31;5092201;28;19964;-70
2020/12/05 09:46:26;;;;;;;;;;;;;;;6.12;100.00;99267.88;5092174;28;20022;-68
2020/12/05 09:48:51;;;;;;;;;;;;;;;6.13;100.00;99249.84;5092344;28;19978;-69
2020/12/05 09:51:17;;;;;;;;;;;;;;;6.17;100.00;99249.47;5092175;28;20448;-69
2020/12/05 09:53:43;;;;;;;;;;;;;;;6.17;100.00;99246.78;5092185;28;19928;-69
2020/12/05 09:56:09;;;;;;;;;;;;;;;6.16;100.00;99239.69;5091501;28;19924;-69
2020/12/05 09:58:35;;;;;;;;;;;;;;;6.00;100.00;99248.22;5091426;28;19924;-69
2020/12/05 10:01:01;;;;;;;;;;;;;;;6.03;100.00;99247.09;5091164;28;19932;-69
2020/12/05 10:03:27;;;;;;;;;;;;;;;6.02;100.00;99258.84;5091982;28;19963;-69
2020/12/05 10:05:53;;;;;;;;;;;;;;;5.89;100.00;99250.94;5091758;28;19924;-69
2020/12/05 10:08:18;;;;;;;;;;;;;;;5.99;100.00;99256.44;5091562;28;20393;-69
2020/12/05 10:10:44;;;;;;;;;;;;;;;5.99;100.00;99254.59;5091637;28;19931;-69
2020/12/05 10:13:11;;;;;;;;;;;;;;;6.07;100.00;99266.56;5090958;28;21596;-70
2020/12/05 10:15:37;;;;;;;;;;;;;;;6.13;100.00;99264.19;5091488;28;19942;-69
2020/12/05 10:18:04;;;;;;;;;;;;;;;6.07;100.00;99282.72;5091552;28;19928;-70
2020/12/05 10:20:31;;;;;;;;;;;;;;;6.12;100.00;99289.44;5091547;28;19967;-69
2020/12/05 10:22:57;;;;;;;;;;;;;;;6.14;100.00;99290.13;5091756;28;19931;-69
2020/12/05 10:25:23;;;;;;;;;;;;;;;6.20;100.00;99303.09;5091727;28;20317;-69
2020/12/05 10:27:50;;;;;;;;;;;;;;;6.32;100.00;99327.25;5091463;28;20266;-69
2020/12/05 10:30:15;;;;;;;;;;;;;;;6.43;100.00;99335.31;5091495;28;19931;-69
2020/12/05 10:32:41;;;;;;;;;;;;;;;6.56;100.00;99345.00;5091336;28;19924;-69
2020/12/05 10:35:09;;;;;;;;;;;;;;;6.57;100.00;99346.72;5090340;28;19928;-69
2020/12/05 10:37:35;;;;;;;;;;;;;;;6.63;100.00;99359.69;5091328;28;19924;-68
2020/12/05 10:40:00;;;;;;;;;;;;;;;6.61;100.00;99350.88;5091186;28;19977;-69
2020/12/05 10:42:26;;;;;;;;;;;;;;;6.63;100.00;99359.69;5090053;28;19924;-69
2020/12/05 10:44:52;;;;;;;;;;;;;;;6.58;100.00;99348.44;5090247;28;19924;-69
2020/12/05 10:47:18;;;;;;;;;;;;;;;6.73;100.00;99344.41;5091221;28;19969;-69
2020/12/05 10:49:44;;;;;;;;;;;;;;;6.77;100.00;99355.78;5091089;28;19932;-69
2020/12/05 10:52:10;;;;;;;;;;;;;;;6.80;100.00;99364.47;5091397;28;19924;-69
2020/12/05 10:54:36;;;;;;;;;;;;;;;6.88;100.00;99350.28;5091383;28;19928;-69
2020/12/05 10:57:02;;;;;;;;;;;;;;;6.99;100.00;99360.16;5090679;28;19925;-69
2020/12/05 10:59:28;;;;;;;;;;;;;;;7.10;100.00;99349.25;5090837;28;19932;-69
2020/12/05 11:01:55;;;;;;;;;;;;;;;7.06;100.00;99342.44;5090939;28;20006;-69
2020/12/05 11:04:21;;;;;;;;;;;;;;;7.05;100.00;99324.53;5091101;28;19950;-69
2020/12/05 11:06:47;;;;;;;;;;;;;;;7.04;100.00;99329.09;5089280;28;19924;-69
2020/12/05 11:09:13;;;;;;;;;;;;;;;7.00;100.00;99311.47;5091195;28;19924;-69
2020/12/05 11:11:39;;;;;;;;;;;;;;;6.90;100.00;99328.59;5089906;28;20424;-69
2020/12/05 11:14:05;;;;;;;;;;;;;;;6.80;100.00;99324.00;5090967;28;19928;-69
2020/12/05 11:16:31;;;;;;;;;;;;;;;6.80;100.00;99342.91;5090939;28;19973;-68
2020/12/05 11:18:56;;;;;;;;;;;;;;;6.83;100.00;99329.13;5091100;28;19924;-68
2020/12/05 11:21:22;;;;;;;;;;;;;;;6.94;100.00;99330.03;5091092;28;19928;-68
2020/12/05 11:23:48;;;;;;;;;;;;;;;6.96;100.00;99344.22;5090791;28;19932;-68
2020/12/05 11:26:19;;;;;;;;;;;;;;;7.02;100.00;99346.41;5089542;28;19928;-68
2020/12/05 11:28:45;;;;;;;;;;;;;;;7.06;100.00;99347.00;5094739;28;20381;-68
2020/12/05 11:31:11;;;;;;;;;;;;;;;7.03;100.00;99353.50;5090904;28;19935;-69
2020/12/05 11:33:37;;;;;;;;;;;;;;;7.02;100.00;99384.16;5106475;28;19971;-69
2020/12/05 11:36:03;;;;;;;;;;;;;;;6.97;100.00;99405.31;5098463;28;20405;-69
2020/12/05 11:38:28;;;;;;;;;;;;;;;6.95;100.00;99415.34;5090788;28;19924;-68
2020/12/05 11:40:54;;;;;;;;;;;;;;;6.91;100.00;99393.22;5099630;28;19945;-68
2020/12/05 11:43:21;;;;;;;;;;;;;;;6.89;100.00;99389.78;5110926;28;19931;-68
2020/12/05 11:45:47;;;;;;;;;;;;;;;6.91;100.00;99406.69;5107493;28;20040;-69
2020/12/05 11:48:12;;;;;;;;;;;;;;;6.86;100.00;99404.38;5090508;28;19924;-68
2020/12/05 11:50:38;;;;;;;;;;;;;;;6.82;100.00;99405.63;5095675;28;20372;-68
2020/12/05 11:53:06;;;;;;;;;;;;;;;6.81;100.00;99398.53;5090718;28;19978;-69
2020/12/05 11:55:32;;;;;;;;;;;;;;;6.78;100.00;99408.75;5095979;28;20018;-69
2020/12/05 11:57:58;;;;;;;;;;;;;;;6.69;100.00;99418.47;5112881;28;19928;-68
2020/12/05 12:00:25;;;;;;;;;;;;;;;6.64;100.00;99424.28;5108656;28;19931;-68
2020/12/05 12:02:51;;;;;;;;;;;;;;;6.52;100.00;99419.91;5104881;28;19928;-69
2020/12/05 12:05:17;;;;;;;;;;;;;;;6.47;100.00;99438.34;5113969;28;20444;-68
2020/12/05 12:07:43;;;;;;;;;;;;;;;6.45;100.00;99424.13;5114271;28;19928;-68
2020/12/05 12:10:08;;;;;;;;;;;;;;;6.45;100.00;99410.63;5096049;28;19931;-68
2020/12/05 12:12:35;;;;;;;;;;;;;;;6.44;100.00;99415.19;5114311;28;19923;-69
2020/12/05 12:15:01;;;;;;;;;;;;;;;6.38;100.00;99421.09;5096462;28;19971;-68
2020/12/05 12:17:28;;;;;;;;;;;;;;;6.28;100.00;99422.84;5094754;28;19928;-68
2020/12/05 12:19:54;;;;;;;;;;;;;;;6.19;100.00;99411.84;5113238;28;19977;-68
2020/12/05 12:22:19;;;;;;;;;;;;;;;6.12;100.00;99423.28;5107974;28;19924;-68
2020/12/05 12:24:45;;;;;;;;;;;;;;;6.02;100.00;99429.41;5093644;28;19928;-68
2020/12/05 12:27:11;;;;;;;;;;;;;;;5.98;100.00;99443.28;5098354;28;19931;-68
2020/12/05 12:29:37;;;;;;;;;;;;;;;5.92;100.00;99465.28;5112633;28;19935;-69
2020/12/05 12:32:03;;;;;;;;;;;;;;;5.85;100.00;99468.50;5093812;28;20569;-68
2020/12/05 12:34:29;;;;;;;;;;;;;;;5.79;100.00;99473.53;5102187;28;19974;-68
2020/12/05 12:36:55;;;;;;;;;;;;;;;5.76;100.00;99496.19;5111888;28;19951;-68
2020/12/05 12:39:21;;;;;;;;;;;;;;;5.75;100.00;99501.69;5093156;28;19932;-68
2020/12/05 12:41:47;;;;;;;;;;;;;;;5.72;100.00;99512.69;5093534;28;20347;-68
2020/12/05 12:44:12;;;;;;;;;;;;;;;5.69;100.00;99522.75;5113378;28;19924;-69